createdAt,value
2017-05-29T00:01:15.381Z,23.62
2017-05-29T00:02:15.602Z,23.59
2017-05-29T00:03:15.543Z,23.58
2017-05-29T00:04:15.481Z,23.63
2017-05-29T00:05:15.114Z,23.61
2017-05-29T00:06:15.366Z,23.62
2017-05-29T00:07:15.294Z,23.59
2017-05-29T00:08:15.236Z,23.62
2017-05-29T00:09:15.171Z,23.61
2017-05-29T00:10:15.101Z,23.61
2017-05-29T00:11:15.038Z,23.61
2017-05-29T00:12:14.679Z,23.63
2017-05-29T00:13:14.921Z,23.59
2017-05-29T00:14:14.553Z,23.62
2017-05-29T00:15:14.489Z,23.59
2017-05-29T00:16:14.727Z,23.58
2017-05-29T00:17:14.363Z,23.58
2017-05-29T00:18:14.608Z,23.62
2017-05-29T00:19:14.537Z,23.62
2017-05-29T00:20:14.477Z,23.56
2017-05-29T00:21:14.113Z,23.56
2017-05-29T00:22:14.352Z,23.62
2017-05-29T00:23:14.290Z,23.58
2017-05-29T00:24:14.228Z,23.62
2017-05-29T00:25:14.165Z,23.61
2017-05-29T00:26:13.801Z,23.63
2017-05-29T00:27:13.436Z,23.61
2017-05-29T00:28:13.979Z,23.62
2017-05-29T00:29:13.917Z,23.59
2017-05-29T00:30:13.550Z,23.56
2017-05-29T00:31:13.487Z,23.55
2017-05-29T00:32:13.423Z,23.65
2017-05-29T00:33:13.363Z,23.59
2017-05-29T00:34:13.599Z,23.61
2017-05-29T00:35:13.240Z,23.62
2017-05-29T00:36:13.482Z,23.62
2017-05-29T00:37:13.115Z,23.65
2017-05-29T00:38:13.354Z,23.58
2017-05-29T00:39:12.988Z,23.63
2017-05-29T00:40:13.229Z,23.56
2017-05-29T00:41:12.863Z,23.62
2017-05-29T00:42:13.109Z,23.65
2017-05-29T00:43:12.741Z,23.56
2017-05-29T00:44:12.984Z,23.65
2017-05-29T00:45:12.920Z,23.63
2017-05-29T00:46:12.860Z,23.59
2017-05-29T00:47:12.797Z,23.63
2017-05-29T00:48:12.744Z,23.55
2017-05-29T00:49:12.681Z,23.56
2017-05-29T00:50:12.607Z,23.56
2017-05-29T00:51:12.242Z,23.59
2017-05-29T00:52:12.732Z,23.61
2017-05-29T00:53:12.416Z,23.59
2017-05-29T00:54:12.053Z,23.58
2017-05-29T00:55:11.994Z,23.56
2017-05-29T00:56:11.925Z,23.54
2017-05-29T00:57:12.173Z,23.54
2017-05-29T00:58:11.806Z,23.58
2017-05-29T00:59:12.041Z,23.59
2017-05-29T01:00:11.982Z,23.58
2017-05-29T01:01:11.922Z,23.59
2017-05-29T01:02:11.553Z,23.63
2017-05-29T01:03:11.799Z,23.58
2017-05-29T01:04:11.938Z,23.58
2017-05-29T01:05:11.672Z,23.59
2017-05-29T01:06:11.306Z,23.56
2017-05-29T01:07:11.543Z,23.58
2017-05-29T01:08:11.484Z,23.58
2017-05-29T01:09:11.420Z,23.54
2017-05-29T01:10:11.055Z,23.59
2017-05-29T01:11:11.298Z,23.56
2017-05-29T01:12:10.935Z,23.55
2017-05-29T01:13:11.179Z,23.56
2017-05-29T01:14:11.105Z,23.59
2017-05-29T01:15:11.045Z,23.58
2017-05-29T01:16:10.989Z,23.55
2017-05-29T01:17:10.926Z,23.56
2017-05-29T01:18:10.859Z,23.56
2017-05-29T01:19:10.797Z,23.56
2017-05-29T01:20:10.738Z,23.61
2017-05-29T01:21:10.674Z,23.58
2017-05-29T01:22:10.007Z,23.61
2017-05-29T01:23:10.548Z,23.59
2017-05-29T01:24:10.491Z,23.58
2017-05-29T01:25:10.123Z,23.58
2017-05-29T01:26:10.058Z,23.58
2017-05-29T01:27:10.301Z,23.66
2017-05-29T01:28:09.935Z,23.56
2017-05-29T01:29:10.174Z,23.56
2017-05-29T01:30:09.507Z,23.55
2017-05-29T01:31:09.446Z,23.48
2017-05-29T01:32:09.994Z,23.59
2017-05-29T01:33:09.926Z,23.56
2017-05-29T01:34:09.562Z,23.54
2017-05-29T01:35:09.497Z,23.59
2017-05-29T01:36:09.437Z,23.51
2017-05-29T01:37:09.674Z,23.5
2017-05-29T01:38:09.641Z,23.58
2017-05-29T01:39:09.553Z,23.5
2017-05-29T01:40:09.490Z,23.56
2017-05-29T01:41:09.428Z,23.62
2017-05-29T01:42:09.419Z,23.5
2017-05-29T01:43:09.307Z,23.51
2017-05-29T01:44:09.240Z,23.48
2017-05-29T01:45:09.190Z,23.65
2017-05-29T01:46:09.112Z,23.55
2017-05-29T01:47:08.748Z,23.51
2017-05-29T01:48:08.688Z,23.51
2017-05-29T01:49:08.927Z,23.54
2017-05-29T01:50:08.562Z,23.48
2017-05-29T01:51:08.803Z,23.58
2017-05-29T01:52:08.741Z,23.56
2017-05-29T01:53:08.380Z,23.51
2017-05-29T01:54:08.309Z,23.5
2017-05-29T01:55:08.251Z,23.55
2017-05-29T01:56:08.185Z,23.56
2017-05-29T01:57:08.423Z,23.56
2017-05-29T01:58:08.366Z,23.62
2017-05-29T01:59:08.306Z,23.48
2017-05-29T02:00:08.240Z,23.55
2017-05-29T02:01:07.874Z,23.58
2017-05-29T02:02:08.120Z,23.56
2017-05-29T02:03:08.061Z,23.55
2017-05-29T02:04:07.989Z,23.54
2017-05-29T02:05:07.634Z,23.48
2017-05-29T02:06:07.870Z,23.55
2017-05-29T02:07:07.804Z,23.51
2017-05-29T02:08:07.743Z,23.58
2017-05-29T02:09:07.681Z,23.55
2017-05-29T02:10:07.314Z,23.61
2017-05-29T02:11:07.557Z,23.55
2017-05-29T02:12:07.495Z,23.54
2017-05-29T02:13:07.429Z,23.48
2017-05-29T02:14:07.066Z,23.58
2017-05-29T02:15:07.302Z,23.54
2017-05-29T02:16:07.242Z,23.54
2017-05-29T02:17:07.180Z,23.54
2017-05-29T02:18:07.119Z,23.54
2017-05-29T02:19:07.055Z,23.55
2017-05-29T02:20:06.995Z,23.48
2017-05-29T02:21:06.932Z,23.59
2017-05-29T02:22:06.877Z,23.5
2017-05-29T02:23:06.808Z,23.55
2017-05-29T02:24:06.843Z,23.51
2017-05-29T02:25:06.679Z,23.47
2017-05-29T02:26:06.622Z,23.54
2017-05-29T02:27:05.965Z,23.51
2017-05-29T02:28:06.204Z,23.51
2017-05-29T02:29:06.129Z,23.54
2017-05-29T02:30:06.371Z,23.5
2017-05-29T02:31:06.306Z,23.47
2017-05-29T02:32:06.247Z,23.47
2017-05-29T02:33:06.194Z,23.5
2017-05-29T02:34:06.120Z,23.5
2017-05-29T02:35:05.472Z,23.5
2017-05-29T02:36:05.703Z,23.55
2017-05-29T02:37:05.931Z,23.55
2017-05-29T02:38:05.882Z,23.56
2017-05-29T02:39:05.501Z,23.5
2017-05-29T02:40:05.441Z,23.56
2017-05-29T02:41:05.684Z,23.48
2017-05-29T02:42:05.617Z,23.54
2017-05-29T02:43:05.564Z,23.55
2017-05-29T02:44:05.492Z,23.54
2017-05-29T02:45:05.431Z,23.48
2017-05-29T02:46:05.378Z,23.5
2017-05-29T02:47:05.310Z,23.5
2017-05-29T02:48:04.952Z,23.48
2017-05-29T02:49:04.894Z,23.51
2017-05-29T02:50:04.527Z,23.51
2017-05-29T02:51:04.764Z,23.54
2017-05-29T02:52:05.011Z,23.54
2017-05-29T02:53:04.982Z,23.51
2017-05-29T02:54:04.565Z,23.58
2017-05-29T02:55:04.610Z,23.55
2017-05-29T02:56:04.755Z,23.56
2017-05-29T02:57:04.691Z,23.48
2017-05-29T02:58:04.622Z,23.51
2017-05-29T02:59:04.320Z,23.47
2017-05-29T03:00:04.609Z,23.5
2017-05-29T03:01:04.435Z,23.5
2017-05-29T03:02:04.372Z,23.5
2017-05-29T03:03:04.310Z,23.58
2017-05-29T03:04:04.242Z,23.55
2017-05-29T03:05:03.893Z,23.56
2017-05-29T03:06:03.828Z,23.5
2017-05-29T03:07:03.757Z,23.55
2017-05-29T03:08:03.700Z,23.51
2017-05-29T03:09:03.939Z,23.58
2017-05-29T03:10:03.875Z,23.54
2017-05-29T03:11:03.516Z,23.5
2017-05-29T03:12:03.748Z,23.51
2017-05-29T03:13:03.401Z,23.55
2017-05-29T03:14:03.626Z,23.51
2017-05-29T03:15:03.259Z,23.54
2017-05-29T03:16:03.502Z,23.54
2017-05-29T03:17:03.457Z,23.55
2017-05-29T03:18:03.371Z,23.51
2017-05-29T03:19:03.323Z,23.55
2017-05-29T03:20:02.947Z,23.5
2017-05-29T03:21:02.894Z,23.48
2017-05-29T03:22:02.821Z,23.47
2017-05-29T03:23:03.066Z,23.5
2017-05-29T03:24:03.013Z,23.58
2017-05-29T03:25:02.939Z,23.51
2017-05-29T03:26:02.572Z,23.47
2017-05-29T03:27:02.540Z,23.51
2017-05-29T03:28:02.455Z,23.55
2017-05-29T03:29:02.690Z,23.55
2017-05-29T03:30:02.626Z,23.51
2017-05-29T03:31:02.563Z,23.5
2017-05-29T03:32:02.524Z,23.5
2017-05-29T03:33:02.153Z,23.5
2017-05-29T03:34:02.295Z,23.54
2017-05-29T03:35:02.313Z,23.48
2017-05-29T03:36:02.256Z,23.51
2017-05-29T03:37:02.190Z,23.51
2017-05-29T03:38:02.133Z,23.47
2017-05-29T03:39:01.780Z,23.5
2017-05-29T03:40:02.001Z,23.56
2017-05-29T03:41:01.941Z,23.48
2017-05-29T03:42:01.886Z,23.51
2017-05-29T03:43:01.815Z,23.51
2017-05-29T03:44:01.757Z,23.55
2017-05-29T03:45:01.389Z,23.54
2017-05-29T03:46:01.637Z,23.54
2017-05-29T03:47:01.585Z,23.48
2017-05-29T03:48:01.500Z,23.51
2017-05-29T03:49:01.446Z,23.54
2017-05-29T03:50:01.107Z,23.54
2017-05-29T03:51:01.036Z,23.56
2017-05-29T03:52:01.259Z,23.51
2017-05-29T03:53:01.200Z,23.48
2017-05-29T03:54:01.128Z,23.55
2017-05-29T03:55:01.125Z,23.55
2017-05-29T03:56:01.028Z,23.54
2017-05-29T03:57:00.941Z,23.48
2017-05-29T03:58:00.891Z,23.51
2017-05-29T03:59:00.818Z,23.51
2017-05-29T04:00:00.764Z,23.54
2017-05-29T04:01:00.715Z,23.55
2017-05-29T04:02:00.383Z,23.48
2017-05-29T04:03:00.568Z,23.58
2017-05-29T04:04:00.266Z,23.5
2017-05-29T04:05:00.147Z,23.54
2017-05-29T04:06:00.394Z,23.54
2017-05-29T04:07:00.335Z,23.48
2017-05-29T04:08:00.252Z,23.54
2017-05-29T04:09:00.208Z,23.54
2017-05-29T04:10:00.129Z,23.51
2017-05-29T04:11:00.076Z,23.54
2017-05-29T04:12:00.002Z,23.51
2017-05-29T04:12:59.941Z,23.54
2017-05-29T04:13:59.878Z,23.48
2017-05-29T04:14:59.818Z,23.5
2017-05-29T04:15:59.753Z,23.51
2017-05-29T04:16:59.698Z,23.51
2017-05-29T04:17:59.627Z,23.47
2017-05-29T04:18:59.572Z,23.58
2017-05-29T04:19:59.521Z,23.51
2017-05-29T04:20:59.440Z,23.56
2017-05-29T04:21:59.385Z,23.55
2017-05-29T04:22:59.327Z,23.5
2017-05-29T04:23:59.256Z,23.54
2017-05-29T04:24:59.202Z,23.58
2017-05-29T04:25:59.129Z,23.5
2017-05-29T04:26:59.077Z,23.54
2017-05-29T04:27:59.004Z,23.5
2017-05-29T04:28:58.943Z,23.54
2017-05-29T04:29:58.892Z,23.56
2017-05-29T04:30:58.528Z,23.58
2017-05-29T04:31:58.755Z,23.51
2017-05-29T04:32:58.707Z,23.55
2017-05-29T04:33:58.635Z,23.46
2017-05-29T04:34:58.631Z,23.55
2017-05-29T04:35:58.515Z,23.51
2017-05-29T04:36:58.448Z,23.47
2017-05-29T04:37:58.380Z,23.48
2017-05-29T04:38:58.321Z,23.41
2017-05-29T04:39:58.265Z,23.44
2017-05-29T04:40:58.191Z,23.44
2017-05-29T04:41:58.131Z,23.4
2017-05-29T04:42:58.072Z,23.46
2017-05-29T04:43:58.006Z,23.46
2017-05-29T04:44:57.646Z,23.4
2017-05-29T04:45:57.890Z,23.44
2017-05-29T04:46:57.820Z,23.44
2017-05-29T04:47:57.456Z,23.47
2017-05-29T04:48:57.407Z,23.48
2017-05-29T04:49:57.635Z,23.46
2017-05-29T04:50:57.570Z,23.39
2017-05-29T04:51:57.508Z,23.43
2017-05-29T04:52:57.448Z,23.41
2017-05-29T04:53:57.381Z,23.46
2017-05-29T04:54:57.322Z,23.32
2017-05-29T04:55:57.257Z,23.37
2017-05-29T04:56:57.193Z,23.39
2017-05-29T04:57:57.135Z,23.37
2017-05-29T04:58:57.070Z,23.37
2017-05-29T04:59:57.016Z,23.37
2017-05-29T05:00:56.940Z,23.36
2017-05-29T05:01:56.879Z,23.41
2017-05-29T05:02:56.821Z,23.4
2017-05-29T05:03:56.754Z,23.43
2017-05-29T05:04:56.691Z,23.32
2017-05-29T05:05:56.627Z,23.44
2017-05-29T05:06:56.560Z,23.37
2017-05-29T05:07:56.506Z,23.37
2017-05-29T05:08:56.442Z,23.24
2017-05-29T05:09:56.383Z,23.37
2017-05-29T05:10:56.320Z,23.36
2017-05-29T05:11:56.254Z,23.32
2017-05-29T05:12:56.195Z,23.24
2017-05-29T05:13:56.128Z,23.34
2017-05-29T05:14:56.071Z,23.36
2017-05-29T05:15:56.101Z,23.34
2017-05-29T05:16:55.938Z,23.32
2017-05-29T05:17:55.882Z,23.37
2017-05-29T05:18:55.817Z,23.28
2017-05-29T05:19:55.754Z,23.32
2017-05-29T05:20:55.692Z,23.36
2017-05-29T05:21:55.325Z,23.28
2017-05-29T05:22:55.263Z,23.31
2017-05-29T05:23:55.203Z,23.36
2017-05-29T05:24:55.135Z,23.27
2017-05-29T05:25:55.071Z,23.32
2017-05-29T05:26:55.006Z,23.25
2017-05-29T05:27:55.252Z,23.32
2017-05-29T05:28:55.185Z,23.24
2017-05-29T05:29:55.123Z,23.31
2017-05-29T05:30:55.064Z,23.27
2017-05-29T05:31:54.998Z,23.36
2017-05-29T05:32:54.937Z,23.24
2017-05-29T05:33:54.876Z,23.28
2017-05-29T05:34:54.810Z,23.28
2017-05-29T05:35:54.443Z,23.25
2017-05-29T05:36:54.682Z,23.23
2017-05-29T05:37:54.622Z,23.25
2017-05-29T05:38:54.563Z,23.24
2017-05-29T05:39:54.499Z,23.23
2017-05-29T05:40:54.433Z,23.24
2017-05-29T05:41:54.370Z,23.25
2017-05-29T05:42:54.312Z,23.21
2017-05-29T05:43:54.242Z,23.25
2017-05-29T05:44:54.184Z,23.21
2017-05-29T05:45:54.119Z,23.24
2017-05-29T05:46:54.057Z,23.23
2017-05-29T05:47:53.998Z,23.21
2017-05-29T05:48:53.935Z,23.24
2017-05-29T05:49:53.867Z,23.24
2017-05-29T05:50:53.806Z,23.17
2017-05-29T05:51:53.744Z,23.23
2017-05-29T05:52:53.678Z,23.23
2017-05-29T05:53:53.616Z,23.18
2017-05-29T05:54:53.557Z,23.24
2017-05-29T05:55:53.189Z,23.24
2017-05-29T05:56:53.428Z,23.21
2017-05-29T05:57:53.365Z,23.17
2017-05-29T05:58:53.305Z,23.23
2017-05-29T05:59:53.243Z,23.23
2017-05-29T06:00:52.877Z,23.2
2017-05-29T06:01:53.113Z,23.2
2017-05-29T06:02:53.059Z,23.24
2017-05-29T06:03:52.993Z,23.23
2017-05-29T06:04:52.927Z,23.21
2017-05-29T06:05:52.862Z,23.23
2017-05-29T06:06:52.802Z,23.24
2017-05-29T06:07:52.738Z,23.17
2017-05-29T06:08:52.677Z,23.2
2017-05-29T06:09:52.609Z,23.18
2017-05-29T06:10:52.551Z,23.2
2017-05-29T06:11:52.487Z,23.17
2017-05-29T06:12:52.420Z,23.18
2017-05-29T06:13:52.363Z,23.15
2017-05-29T06:14:52.013Z,23.18
2017-05-29T06:15:52.239Z,23.21
2017-05-29T06:16:51.872Z,23.23
2017-05-29T06:17:51.816Z,23.2
2017-05-29T06:18:52.044Z,23.17
2017-05-29T06:19:51.986Z,23.18
2017-05-29T06:20:51.619Z,23.2
2017-05-29T06:21:51.859Z,23.15
2017-05-29T06:22:51.794Z,23.17
2017-05-29T06:23:51.740Z,23.15
2017-05-29T06:24:51.670Z,23.15
2017-05-29T06:25:51.611Z,23.15
2017-05-29T06:26:51.545Z,23.15
2017-05-29T06:27:51.482Z,23.18
2017-05-29T06:28:51.417Z,23.13
2017-05-29T06:29:51.356Z,23.13
2017-05-29T06:30:51.292Z,23.17
2017-05-29T06:31:51.243Z,23.1
2017-05-29T06:32:51.178Z,23.2
2017-05-29T06:33:50.805Z,23.15
2017-05-29T06:34:51.045Z,23.13
2017-05-29T06:35:50.978Z,23.2
2017-05-29T06:36:50.917Z,23.13
2017-05-29T06:37:50.854Z,23.18
2017-05-29T06:38:50.790Z,23.1
2017-05-29T06:39:50.725Z,23.08
2017-05-29T06:40:50.662Z,23.17
2017-05-29T06:41:50.601Z,23.12
2017-05-29T06:42:50.541Z,23.09
2017-05-29T06:43:50.482Z,23.12
2017-05-29T06:44:50.415Z,23.06
2017-05-29T06:45:50.352Z,23.13
2017-05-29T06:46:50.283Z,23.13
2017-05-29T06:47:50.224Z,23.1
2017-05-29T06:48:50.162Z,23.13
2017-05-29T06:49:50.095Z,23.13
2017-05-29T06:50:50.032Z,23.09
2017-05-29T06:51:49.971Z,23.09
2017-05-29T06:52:49.909Z,23.13
2017-05-29T06:53:49.548Z,23.1
2017-05-29T06:54:49.796Z,23.1
2017-05-29T06:55:49.721Z,23.18
2017-05-29T06:56:49.716Z,23.15
2017-05-29T06:57:49.592Z,23.1
2017-05-29T06:58:49.531Z,23.17
2017-05-29T06:59:48.872Z,23.06
2017-05-29T07:00:49.119Z,23.09
2017-05-29T07:01:49.340Z,23.13
2017-05-29T07:02:48.974Z,23.08
2017-05-29T07:03:48.611Z,23.15
2017-05-29T07:04:49.158Z,23.12
2017-05-29T07:05:49.094Z,23.09
2017-05-29T07:06:49.026Z,23.08
2017-05-29T07:07:48.976Z,23.09
2017-05-29T07:08:48.903Z,23.09
2017-05-29T07:09:49.199Z,23.13
2017-05-29T07:10:48.776Z,23.12
2017-05-29T07:11:48.814Z,23.09
2017-05-29T07:12:48.653Z,23.1
2017-05-29T07:13:48.591Z,23.08
2017-05-29T07:14:48.526Z,23.08
2017-05-29T07:15:48.462Z,23.09
2017-05-29T07:16:48.397Z,23.17
2017-05-29T07:17:48.334Z,23.09
2017-05-29T07:18:48.274Z,23.08
2017-05-29T07:19:48.227Z,23.03
2017-05-29T07:20:48.150Z,23.09
2017-05-29T07:21:47.781Z,23.08
2017-05-29T07:22:48.024Z,23.02
2017-05-29T07:23:47.958Z,23.08
2017-05-29T07:24:47.898Z,23.08
2017-05-29T07:25:47.831Z,23.08
2017-05-29T07:26:47.469Z,23.1
2017-05-29T07:27:47.709Z,23.09
2017-05-29T07:28:47.336Z,23.08
2017-05-29T07:29:47.580Z,23.08
2017-05-29T07:30:47.217Z,23.1
2017-05-29T07:31:47.458Z,23.06
2017-05-29T07:32:47.392Z,23.08
2017-05-29T07:33:47.329Z,23.06
2017-05-29T07:34:46.966Z,23.08
2017-05-29T07:35:47.300Z,23.08
2017-05-29T07:36:47.145Z,23.12
2017-05-29T07:37:47.082Z,23.08
2017-05-29T07:38:46.715Z,23.08
2017-05-29T07:39:46.950Z,23.05
2017-05-29T07:40:47.039Z,23.05
2017-05-29T07:41:46.858Z,23.06
2017-05-29T07:42:46.471Z,23.08
2017-05-29T07:43:46.705Z,23.02
2017-05-29T07:44:46.638Z,23.05
2017-05-29T07:45:46.574Z,23.05
2017-05-29T07:46:46.512Z,23.05
2017-05-29T07:47:46.146Z,23.05
2017-05-29T07:48:46.382Z,23.02
2017-05-29T07:49:46.322Z,23.03
2017-05-29T07:50:46.258Z,23.03
2017-05-29T07:51:45.893Z,23.02
2017-05-29T07:52:45.837Z,23.03
2017-05-29T07:53:46.068Z,23.06
2017-05-29T07:54:45.703Z,23.05
2017-05-29T07:55:45.941Z,23.03
2017-05-29T07:56:45.897Z,23.03
2017-05-29T07:57:45.819Z,23.1
2017-05-29T07:58:45.750Z,23.05
2017-05-29T07:59:45.694Z,23.1
2017-05-29T08:00:45.549Z,23.13
2017-05-29T08:01:45.265Z,23.17
2017-05-29T08:02:45.502Z,23.12
2017-05-29T08:03:45.149Z,23.12
2017-05-29T08:04:45.072Z,23.15
2017-05-29T08:05:45.312Z,23.12
2017-05-29T08:06:45.250Z,23.12
2017-05-29T08:07:45.191Z,23.1
2017-05-29T08:08:44.885Z,23.13
2017-05-29T08:09:45.060Z,23.18
2017-05-29T08:10:45.004Z,23.17
2017-05-29T08:11:44.636Z,23.15
2017-05-29T08:12:44.875Z,23.13
2017-05-29T08:13:44.811Z,23.1
2017-05-29T08:14:44.450Z,23.13
2017-05-29T08:15:44.683Z,23.08
2017-05-29T08:16:44.615Z,23.24
2017-05-29T08:17:44.571Z,23.18
2017-05-29T08:18:44.502Z,23.13
2017-05-29T08:19:44.433Z,23.23
2017-05-29T08:20:44.368Z,23.12
2017-05-29T08:21:44.313Z,23.2
2017-05-29T08:22:44.244Z,23.21
2017-05-29T08:23:44.178Z,23.18
2017-05-29T08:24:44.118Z,23.21
2017-05-29T08:25:44.069Z,23.23
2017-05-29T08:26:43.689Z,23.18
2017-05-29T08:27:43.930Z,23.18
2017-05-29T08:28:43.869Z,23.23
2017-05-29T08:29:43.502Z,23.2
2017-05-29T08:30:43.745Z,23.2
2017-05-29T08:31:43.680Z,23.24
2017-05-29T08:32:43.612Z,23.23
2017-05-29T08:33:43.556Z,23.31
2017-05-29T08:34:43.186Z,23.21
2017-05-29T08:35:43.428Z,23.2
2017-05-29T08:36:43.361Z,23.23
2017-05-29T08:37:43.304Z,23.24
2017-05-29T08:38:42.937Z,23.18
2017-05-29T08:39:43.178Z,23.18
2017-05-29T08:40:43.114Z,23.24
2017-05-29T08:41:43.052Z,23.23
2017-05-29T08:42:42.682Z,23.18
2017-05-29T08:43:42.926Z,23.21
2017-05-29T08:44:42.864Z,23.21
2017-05-29T08:45:42.800Z,23.23
2017-05-29T08:46:42.733Z,23.27
2017-05-29T08:47:42.372Z,23.18
2017-05-29T08:48:42.611Z,23.25
2017-05-29T08:49:42.553Z,23.21
2017-05-29T08:50:42.179Z,23.15
2017-05-29T08:51:42.420Z,23.18
2017-05-29T08:52:42.358Z,23.25
2017-05-29T08:53:42.360Z,23.2
2017-05-29T08:54:42.242Z,23.23
2017-05-29T08:55:42.182Z,23.18
2017-05-29T08:56:41.804Z,23.18
2017-05-29T08:57:42.046Z,23.21
2017-05-29T08:58:41.983Z,23.17
2017-05-29T08:59:41.922Z,23.27
2017-05-29T09:00:41.856Z,23.27
2017-05-29T09:01:41.802Z,23.21
2017-05-29T09:02:41.744Z,23.25
2017-05-29T09:03:41.665Z,23.25
2017-05-29T09:04:41.608Z,23.23
2017-05-29T09:05:41.548Z,23.18
2017-05-29T09:06:41.185Z,23.21
2017-05-29T09:07:41.418Z,23.24
2017-05-29T09:08:41.049Z,23.2
2017-05-29T09:09:40.684Z,23.24
2017-05-29T09:10:41.231Z,23.2
2017-05-29T09:11:40.557Z,23.24
2017-05-29T09:12:41.107Z,23.24
2017-05-29T09:13:41.038Z,23.27
2017-05-29T09:14:40.672Z,23.18
2017-05-29T09:15:40.610Z,23.24
2017-05-29T09:16:40.846Z,23.32
2017-05-29T09:17:40.789Z,23.36
2017-05-29T09:18:40.721Z,23.31
2017-05-29T09:19:40.663Z,23.28
2017-05-29T09:20:40.612Z,23.28
2017-05-29T09:21:40.540Z,23.41
2017-05-29T09:22:40.473Z,23.31
2017-05-29T09:23:40.109Z,23.37
2017-05-29T09:24:40.349Z,23.31
2017-05-29T09:25:40.290Z,23.36
2017-05-29T09:26:40.222Z,23.34
2017-05-29T09:27:40.162Z,23.31
2017-05-29T09:28:39.850Z,23.32
2017-05-29T09:29:39.809Z,23.41
2017-05-29T09:30:39.978Z,23.27
2017-05-29T09:31:39.617Z,23.31
2017-05-29T09:32:39.856Z,23.31
2017-05-29T09:33:39.481Z,23.46
2017-05-29T09:34:39.722Z,23.32
2017-05-29T09:35:39.668Z,23.28
2017-05-29T09:36:39.298Z,23.32
2017-05-29T09:37:39.538Z,23.32
2017-05-29T09:38:39.171Z,23.32
2017-05-29T09:39:39.410Z,23.34
2017-05-29T09:40:39.042Z,23.27
2017-05-29T09:41:39.279Z,23.32
2017-05-29T09:42:39.231Z,23.27
2017-05-29T09:43:39.160Z,23.31
2017-05-29T09:44:38.795Z,23.36
2017-05-29T09:45:39.186Z,23.37
2017-05-29T09:46:39.010Z,23.34
2017-05-29T09:47:38.909Z,23.36
2017-05-29T09:48:38.610Z,23.37
2017-05-29T09:49:38.789Z,23.41
2017-05-29T09:50:38.818Z,23.34
2017-05-29T09:51:38.353Z,23.34
2017-05-29T09:52:38.605Z,23.41
2017-05-29T09:53:38.542Z,23.34
2017-05-29T09:54:38.170Z,23.44
2017-05-29T09:55:38.457Z,23.44
2017-05-29T09:56:38.351Z,23.54
2017-05-29T09:57:38.296Z,23.39
2017-05-29T09:58:38.215Z,23.46
2017-05-29T09:59:38.157Z,23.41
2017-05-29T10:00:38.097Z,23.44
2017-05-29T10:01:37.731Z,23.47
2017-05-29T10:02:37.671Z,23.46
2017-05-29T10:03:37.913Z,23.5
2017-05-29T10:04:37.854Z,23.47
2017-05-29T10:05:37.483Z,23.44
2017-05-29T10:06:37.721Z,23.56
2017-05-29T10:07:37.655Z,23.54
2017-05-29T10:08:37.288Z,23.51
2017-05-29T10:09:37.229Z,23.48
2017-05-29T10:10:37.471Z,23.54
2017-05-29T10:11:37.404Z,23.54
2017-05-29T10:12:37.346Z,23.55
2017-05-29T10:13:37.284Z,23.54
2017-05-29T10:14:37.218Z,23.58
2017-05-29T10:15:37.162Z,23.56
2017-05-29T10:16:36.791Z,23.59
2017-05-29T10:17:37.030Z,23.55
2017-05-29T10:18:36.972Z,23.47
2017-05-29T10:19:36.911Z,23.59
2017-05-29T10:20:36.850Z,23.58
2017-05-29T10:21:36.782Z,23.56
2017-05-29T10:22:36.722Z,23.62
2017-05-29T10:23:36.362Z,23.61
2017-05-29T10:24:36.595Z,23.58
2017-05-29T10:25:36.539Z,23.56
2017-05-29T10:26:36.533Z,23.59
2017-05-29T10:27:36.413Z,23.55
2017-05-29T10:28:36.346Z,23.66
2017-05-29T10:29:35.686Z,23.58
2017-05-29T10:30:35.922Z,23.61
2017-05-29T10:31:35.856Z,23.56
2017-05-29T10:32:36.096Z,23.61
2017-05-29T10:33:35.735Z,23.61
2017-05-29T10:34:35.972Z,23.62
2017-05-29T10:35:35.961Z,23.68
2017-05-29T10:36:35.546Z,23.62
2017-05-29T10:37:35.482Z,23.68
2017-05-29T10:38:35.726Z,23.63
2017-05-29T10:39:35.666Z,23.62
2017-05-29T10:40:35.608Z,23.65
2017-05-29T10:41:35.535Z,23.65
2017-05-29T10:42:35.473Z,23.63
2017-05-29T10:43:35.411Z,23.71
2017-05-29T10:44:35.352Z,23.61
2017-05-29T10:45:35.284Z,23.62
2017-05-29T10:46:35.229Z,23.65
2017-05-29T10:47:35.224Z,23.62
2017-05-29T10:48:35.098Z,23.68
2017-05-29T10:49:35.036Z,23.65
2017-05-29T10:50:35.074Z,23.62
2017-05-29T10:51:34.917Z,23.63
2017-05-29T10:52:34.852Z,23.62
2017-05-29T10:53:34.490Z,23.62
2017-05-29T10:54:34.734Z,23.55
2017-05-29T10:55:34.864Z,23.59
2017-05-29T10:56:34.600Z,23.56
2017-05-29T10:57:34.538Z,23.61
2017-05-29T10:58:34.478Z,23.62
2017-05-29T10:59:34.113Z,23.63
2017-05-29T11:00:34.361Z,23.58
2017-05-29T11:01:33.990Z,23.59
2017-05-29T11:02:33.929Z,23.58
2017-05-29T11:03:34.167Z,23.61
2017-05-29T11:04:34.136Z,23.59
2017-05-29T11:05:34.041Z,23.56
2017-05-29T11:06:33.677Z,23.61
2017-05-29T11:07:33.615Z,23.48
2017-05-29T11:08:33.859Z,23.48
2017-05-29T11:09:33.488Z,23.56
2017-05-29T11:10:33.736Z,23.51
2017-05-29T11:11:33.879Z,23.56
2017-05-29T11:12:33.604Z,23.51
2017-05-29T11:13:33.543Z,23.54
2017-05-29T11:14:33.489Z,23.48
2017-05-29T11:15:33.420Z,23.5
2017-05-29T11:16:33.360Z,23.48
2017-05-29T11:17:33.291Z,23.5
2017-05-29T11:18:33.236Z,23.51
2017-05-29T11:19:33.186Z,23.54
2017-05-29T11:20:33.105Z,23.5
2017-05-29T11:21:33.042Z,23.54
2017-05-29T11:22:32.984Z,23.56
2017-05-29T11:23:32.617Z,23.56
2017-05-29T11:24:32.558Z,23.51
2017-05-29T11:25:32.794Z,23.46
2017-05-29T11:26:32.430Z,23.5
2017-05-29T11:27:32.672Z,23.55
2017-05-29T11:28:32.609Z,23.55
2017-05-29T11:29:32.550Z,23.55
2017-05-29T11:30:32.480Z,23.46
2017-05-29T11:31:32.429Z,23.55
2017-05-29T11:32:32.087Z,23.54
2017-05-29T11:33:31.991Z,23.48
2017-05-29T11:34:32.234Z,23.44
2017-05-29T11:35:32.168Z,23.44
2017-05-29T11:36:32.108Z,23.44
2017-05-29T11:37:31.743Z,23.54
2017-05-29T11:38:31.676Z,23.44
2017-05-29T11:39:31.674Z,23.5
2017-05-29T11:40:31.858Z,23.46
2017-05-29T11:41:31.797Z,23.41
2017-05-29T11:42:31.733Z,23.44
2017-05-29T11:43:31.066Z,23.48
2017-05-29T11:44:31.307Z,23.44
2017-05-29T11:45:31.240Z,23.46
2017-05-29T11:46:31.187Z,23.5
2017-05-29T11:47:31.120Z,23.43
2017-05-29T11:48:31.056Z,23.44
2017-05-29T11:49:31.048Z,23.44
2017-05-29T11:50:31.300Z,23.44
2017-05-29T11:51:31.170Z,23.44
2017-05-29T11:52:31.104Z,23.44
2017-05-29T11:53:31.042Z,23.44
2017-05-29T11:54:30.679Z,23.41
2017-05-29T11:55:30.613Z,23.44
2017-05-29T11:56:30.249Z,23.46
2017-05-29T11:57:30.789Z,23.46
2017-05-29T11:58:30.428Z,23.36
2017-05-29T11:59:30.673Z,23.37
2017-05-29T12:00:30.306Z,23.36
2017-05-29T12:01:30.239Z,23.37
2017-05-29T12:02:30.481Z,23.37
2017-05-29T12:03:30.158Z,23.37
2017-05-29T12:04:30.352Z,23.47
2017-05-29T12:05:30.289Z,23.31
2017-05-29T12:06:30.240Z,23.32
2017-05-29T12:07:30.167Z,23.34
2017-05-29T12:08:30.107Z,23.28
2017-05-29T12:09:30.036Z,23.25
2017-05-29T12:10:29.980Z,23.37
2017-05-29T12:11:29.917Z,23.36
2017-05-29T12:12:29.860Z,23.43
2017-05-29T12:13:29.795Z,23.34
2017-05-29T12:14:29.731Z,23.34
2017-05-29T12:15:29.664Z,23.4
2017-05-29T12:16:29.606Z,23.37
2017-05-29T12:17:29.542Z,23.32
2017-05-29T12:18:29.183Z,23.32
2017-05-29T12:19:29.416Z,23.32
2017-05-29T12:20:29.602Z,23.32
2017-05-29T12:21:28.988Z,23.36
2017-05-29T12:22:28.926Z,23.36
2017-05-29T12:23:29.165Z,23.31
2017-05-29T12:24:28.801Z,23.47
2017-05-29T12:25:29.050Z,23.46
2017-05-29T12:26:28.977Z,23.4
2017-05-29T12:27:28.917Z,23.47
2017-05-29T12:28:28.848Z,23.44
2017-05-29T12:29:28.794Z,23.44
2017-05-29T12:30:28.731Z,23.44
2017-05-29T12:31:28.664Z,23.39
2017-05-29T12:32:28.602Z,23.46
2017-05-29T12:33:28.541Z,23.48
2017-05-29T12:34:27.872Z,23.46
2017-05-29T12:35:28.460Z,23.5
2017-05-29T12:36:28.048Z,23.47
2017-05-29T12:37:28.283Z,23.41
2017-05-29T12:38:27.920Z,23.43
2017-05-29T12:39:27.862Z,23.47
2017-05-29T12:40:27.798Z,23.47
2017-05-29T12:41:27.731Z,23.44
2017-05-29T12:42:27.975Z,23.44
2017-05-29T12:43:27.918Z,23.46
2017-05-29T12:44:27.844Z,23.44
2017-05-29T12:45:27.784Z,23.44
2017-05-29T12:46:27.723Z,23.44
2017-05-29T12:47:27.363Z,23.41
2017-05-29T12:48:27.600Z,23.46
2017-05-29T12:49:27.537Z,23.48
2017-05-29T12:50:27.471Z,23.41
2017-05-29T12:51:27.408Z,23.43
2017-05-29T12:52:27.357Z,23.46
2017-05-29T12:53:27.285Z,23.47
2017-05-29T12:54:27.222Z,23.46